Siriri, Brazil
Current Conditions -  °F | °C
As of 5:00 PM on Thursday 29 Jan 2015 (Local Time) from SBAR Reporting Station
Broken Clouds Broken Clouds  
Wind Chill: 77°   Ceiling: 1100
Heat Index: 78°   Visibility: 6mi
Dew Point: 75°   Wind: 7mph
Humidity: 94%   Direction: 220°SW
Pressure: 29.88"   Gusts: NA
Location:  10.6°S, 37.13°W
Report Text: SBAR 292000Z 22006KT 9999 BKN011 25/24 Q1012 RERA
Loading
Personal Weather Stations






























Interactive Weather Map New forecast layout! Learn more

10-Day Weather Forecast

Advertisements
Track Severe Weather on mobile